Loomis, California
Current Conditions -  °F | °C
As of 12:15 AM on Thursday 18 Dec 2014 (Local Time) from KAUN Reporting Station
Broken Clouds Broken Clouds  
Wind Chill: 41°   Ceiling: 6000
Heat Index: 45°   Visibility: 10mi
Dew Point: 43°   Wind: 7mph
Humidity: 93%   Direction: 110°ESE
Pressure: 30.1"   Gusts: NA
Location:  38.82°N, 121.19°W
Report Text: KAUN 180815Z AUTO 11006KT 10SM BKN060 07/06 A3010 RMK AO1
Loading
Personal Weather Stations






























Interactive Weather Map New forecast layout! Learn more

10-Day Weather Forecast

Advertisements
Track Severe Weather on mobile